createdAt,value
2018-06-13T00:00:02.904Z,68.60
2018-06-13T00:02:33.107Z,68.90
2018-06-13T00:05:03.240Z,68.80
2018-06-13T00:07:33.377Z,68.70
2018-06-13T00:10:03.445Z,68.10
2018-06-13T00:12:33.493Z,68.00
2018-06-13T00:15:03.609Z,69.10
2018-06-13T00:17:33.694Z,68.00
2018-06-13T00:22:33.632Z,67.00
2018-06-13T00:25:03.790Z,67.30
2018-06-13T00:27:33.848Z,66.90
2018-06-13T00:30:03.963Z,67.10
2018-06-13T00:32:34.906Z,67.40
2018-06-13T00:35:04.973Z,67.10
2018-06-13T00:37:35.108Z,67.00
2018-06-13T00:40:05.870Z,67.70
2018-06-13T00:42:36.017Z,67.40
2018-06-13T00:45:06.423Z,65.60
2018-06-13T00:47:36.578Z,65.90
2018-06-13T00:50:06.590Z,66.70
2018-06-13T00:52:36.684Z,67.20
2018-06-13T00:55:07.072Z,67.60
2018-06-13T00:57:37.252Z,67.70
2018-06-13T01:00:07.836Z,67.20
2018-06-13T01:02:38.015Z,67.10
2018-06-13T01:05:08.076Z,67.50
2018-06-13T01:07:38.282Z,66.70
2018-06-13T01:10:08.436Z,66.00
2018-06-13T01:12:38.597Z,65.70
2018-06-13T01:15:08.727Z,65.60
2018-06-13T01:17:38.879Z,65.40
2018-06-13T01:20:08.933Z,65.60
2018-06-13T01:22:39.067Z,65.00
2018-06-13T01:25:09.117Z,65.00
2018-06-13T01:27:39.634Z,65.10
2018-06-13T01:30:10.189Z,65.30
2018-06-13T01:32:40.415Z,65.20
2018-06-13T01:35:10.538Z,64.50
2018-06-13T01:37:40.708Z,64.80
2018-06-13T01:40:10.987Z,64.70
2018-06-13T01:42:41.047Z,64.30
2018-06-13T01:45:11.131Z,64.50
2018-06-13T01:47:41.403Z,64.60
2018-06-13T01:50:11.393Z,64.30
2018-06-13T01:52:41.615Z,64.60
2018-06-13T01:55:11.827Z,64.70
2018-06-13T01:57:42.042Z,64.90
2018-06-13T02:02:41.955Z,63.90
2018-06-13T02:05:12.505Z,64.30
2018-06-13T02:07:42.666Z,63.90
2018-06-13T02:10:12.897Z,63.90
2018-06-13T02:12:43.582Z,64.10
2018-06-13T02:15:13.647Z,63.80
2018-06-13T02:17:43.850Z,64.10
2018-06-13T02:20:13.850Z,64.10
2018-06-13T02:22:44.046Z,63.90
2018-06-13T02:25:14.249Z,64.10
2018-06-13T02:27:44.445Z,64.00
2018-06-13T02:30:14.492Z,63.90
2018-06-13T02:32:44.677Z,63.60
2018-06-13T02:35:14.840Z,63.70
2018-06-13T02:37:45.487Z,63.50
2018-06-13T02:40:15.516Z,63.80
2018-06-13T02:42:45.596Z,63.50
2018-06-13T02:45:15.663Z,63.80
2018-06-13T02:47:45.783Z,64.10
2018-06-13T02:50:15.849Z,64.30
2018-06-13T02:52:46.543Z,64.30
2018-06-13T02:55:16.567Z,64.30
2018-06-13T02:57:46.710Z,64.30
2018-06-13T03:00:16.820Z,64.30
2018-06-13T03:02:46.994Z,64.00
2018-06-13T03:05:17.132Z,64.00
2018-06-13T03:07:47.194Z,63.90
2018-06-13T03:10:17.254Z,63.80
2018-06-13T03:12:47.414Z,63.60
2018-06-13T03:15:17.541Z,64.20
2018-06-13T03:17:48.084Z,64.30
2018-06-13T03:20:18.178Z,64.30
2018-06-13T03:22:48.268Z,64.00
2018-06-13T03:25:18.238Z,64.10
2018-06-13T03:27:48.316Z,64.90
2018-06-13T03:30:18.374Z,63.90
2018-06-13T03:32:48.498Z,64.50
2018-06-13T03:35:18.722Z,65.10
2018-06-13T03:37:48.827Z,65.70
2018-06-13T03:40:18.938Z,67.00
2018-06-13T03:42:49.170Z,68.80
2018-06-13T03:45:19.214Z,69.80
2018-06-13T03:47:49.868Z,70.80
2018-06-13T03:50:19.986Z,71.80
2018-06-13T03:52:50.078Z,72.30
2018-06-13T03:55:20.192Z,72.60
2018-06-13T03:57:50.299Z,72.80
2018-06-13T04:00:20.342Z,72.40
2018-06-13T04:02:50.396Z,72.30
2018-06-13T04:05:20.548Z,70.60
2018-06-13T04:07:50.783Z,70.90
2018-06-13T04:10:20.892Z,70.80
2018-06-13T04:12:50.964Z,70.60
2018-06-13T04:15:21.114Z,70.60
2018-06-13T04:17:51.223Z,70.20
2018-06-13T04:20:21.471Z,70.20
2018-06-13T04:22:51.695Z,69.50
2018-06-13T04:27:51.992Z,67.90
2018-06-13T04:30:22.050Z,67.80
2018-06-13T04:32:52.190Z,67.60
2018-06-13T04:35:22.267Z,66.60
2018-06-13T04:37:52.473Z,67.40
2018-06-13T04:40:22.495Z,67.00
2018-06-13T04:42:52.602Z,67.20
2018-06-13T04:45:22.654Z,67.10
2018-06-13T04:47:52.792Z,66.90
2018-06-13T04:50:22.970Z,66.70
2018-06-13T04:52:53.346Z,66.30
2018-06-13T04:55:23.387Z,66.80
2018-06-13T04:57:55.139Z,66.60
2018-06-13T05:00:25.293Z,67.00
2018-06-13T05:02:55.409Z,66.80
2018-06-13T05:05:25.475Z,65.40
2018-06-13T05:07:55.640Z,65.30
2018-06-13T05:10:25.841Z,65.80
2018-06-13T05:12:55.963Z,65.10
2018-06-13T05:15:26.059Z,64.90
2018-06-13T05:17:56.197Z,65.50
2018-06-13T05:20:26.346Z,65.50
2018-06-13T05:22:56.545Z,64.10
2018-06-13T05:25:26.729Z,64.30
2018-06-13T05:27:56.966Z,63.90
2018-06-13T05:30:27.037Z,64.30
2018-06-13T05:32:57.245Z,64.30
2018-06-13T05:35:27.308Z,63.60
2018-06-13T05:37:57.429Z,63.60
2018-06-13T05:40:27.613Z,63.50
2018-06-13T05:42:57.642Z,63.00
2018-06-13T05:45:27.819Z,62.50
2018-06-13T05:47:57.880Z,63.00
2018-06-13T05:50:28.021Z,62.70
2018-06-13T05:52:58.530Z,62.80
2018-06-13T05:55:28.648Z,63.60
2018-06-13T05:57:58.677Z,64.20
2018-06-13T06:00:28.813Z,64.70
2018-06-13T06:02:58.921Z,64.50
2018-06-13T06:05:29.125Z,63.70
2018-06-13T06:07:59.312Z,63.90
2018-06-13T06:10:31.368Z,62.90
2018-06-13T06:13:01.264Z,63.10
2018-06-13T06:15:31.430Z,63.40
2018-06-13T06:18:01.552Z,63.20
2018-06-13T06:20:31.775Z,62.80
2018-06-13T06:23:02.039Z,62.90
2018-06-13T06:25:32.247Z,62.60
2018-06-13T06:28:02.351Z,62.80
2018-06-13T06:30:32.490Z,63.10
2018-06-13T06:33:02.591Z,63.60
2018-06-13T06:35:32.671Z,63.70
2018-06-13T06:38:02.723Z,63.00
2018-06-13T06:40:32.859Z,62.40
2018-06-13T06:43:02.975Z,62.10
2018-06-13T06:45:33.133Z,62.60
2018-06-13T06:48:03.327Z,62.90
2018-06-13T06:50:33.403Z,61.80
2018-06-13T06:53:03.413Z,62.90
2018-06-13T06:55:33.626Z,63.30
2018-06-13T06:58:03.692Z,62.90
2018-06-13T07:00:33.835Z,63.00
2018-06-13T07:03:05.425Z,63.30
2018-06-13T07:05:36.263Z,63.10
2018-06-13T07:08:06.481Z,62.60
2018-06-13T07:10:36.555Z,62.60
2018-06-13T07:13:06.805Z,62.10
2018-06-13T07:15:36.859Z,62.20
2018-06-13T07:18:07.069Z,62.10
2018-06-13T07:20:37.107Z,63.00
2018-06-13T07:23:07.285Z,63.30
2018-06-13T07:25:37.435Z,64.00
2018-06-13T07:28:07.507Z,64.60
2018-06-13T07:30:37.546Z,65.20
2018-06-13T07:33:07.775Z,65.90
2018-06-13T07:35:37.879Z,66.40
2018-06-13T07:38:08.005Z,66.50
2018-06-13T07:40:38.151Z,66.40
2018-06-13T07:43:08.241Z,66.50
2018-06-13T07:45:38.290Z,67.20
2018-06-13T07:48:08.449Z,68.60
2018-06-13T07:50:38.638Z,69.40
2018-06-13T07:53:08.715Z,70.10
2018-06-13T07:55:38.993Z,70.60
2018-06-13T07:58:09.776Z,70.90
2018-06-13T08:00:39.925Z,69.90
2018-06-13T08:03:10.073Z,68.80
2018-06-13T08:05:40.165Z,68.50
2018-06-13T08:08:10.385Z,67.60
2018-06-13T08:10:40.553Z,66.80
2018-06-13T08:13:10.736Z,66.80
2018-06-13T08:15:41.392Z,66.00
2018-06-13T08:18:11.480Z,66.70
2018-06-13T08:20:41.585Z,67.90
2018-06-13T08:23:11.625Z,67.80
2018-06-13T08:25:41.989Z,67.90
2018-06-13T08:28:12.087Z,65.40
2018-06-13T08:30:42.376Z,65.60
2018-06-13T08:33:12.640Z,65.50
2018-06-13T08:35:43.746Z,65.90
2018-06-13T08:38:13.762Z,64.50
2018-06-13T08:40:43.970Z,63.20
2018-06-13T08:43:14.046Z,63.40
2018-06-13T08:45:44.148Z,63.50
2018-06-13T08:48:14.316Z,63.00
2018-06-13T08:50:44.534Z,64.50
2018-06-13T08:53:14.683Z,64.90
2018-06-13T08:55:44.919Z,64.90
2018-06-13T08:58:15.030Z,64.70
2018-06-13T09:00:45.182Z,64.50
2018-06-13T09:03:15.440Z,64.50
2018-06-13T09:05:45.606Z,63.10
2018-06-13T09:08:15.823Z,64.00
2018-06-13T09:10:45.970Z,64.80
2018-06-13T09:13:16.187Z,64.70
2018-06-13T09:15:46.303Z,64.00
2018-06-13T09:18:16.442Z,64.60
2018-06-13T09:20:46.570Z,65.10
2018-06-13T09:23:16.700Z,65.40
2018-06-13T09:25:46.772Z,66.50
2018-06-13T09:28:16.992Z,66.70
2018-06-13T09:30:47.853Z,65.90
2018-06-13T09:33:17.946Z,65.70
2018-06-13T09:35:49.030Z,66.20
2018-06-13T09:38:19.130Z,66.30
2018-06-13T09:40:49.312Z,66.30
2018-06-13T09:45:50.400Z,64.60
2018-06-13T09:48:20.542Z,65.00
2018-06-13T09:50:51.226Z,65.50
2018-06-13T09:53:21.347Z,66.30
2018-06-13T09:55:51.654Z,67.50
2018-06-13T09:58:21.964Z,66.70
2018-06-13T10:00:57.278Z,66.60
2018-06-13T10:03:27.376Z,66.00
2018-06-13T10:05:57.449Z,66.00
2018-06-13T10:08:27.608Z,66.20
2018-06-13T10:10:58.102Z,66.30
2018-06-13T10:13:28.304Z,65.40
2018-06-13T10:15:58.456Z,64.90
2018-06-13T10:18:28.525Z,64.70
2018-06-13T10:20:58.626Z,64.60
2018-06-13T10:23:28.733Z,64.20
2018-06-13T10:25:58.813Z,63.50
2018-06-13T10:28:29.369Z,63.80
2018-06-13T10:30:59.459Z,63.80
2018-06-13T10:33:29.633Z,64.30
2018-06-13T10:35:59.858Z,63.20
2018-06-13T10:38:30.082Z,62.90
2018-06-13T10:43:29.808Z,61.40
2018-06-13T10:45:59.971Z,61.30
2018-06-13T10:48:30.205Z,60.20
2018-06-13T10:51:00.255Z,59.80
2018-06-13T10:53:30.431Z,59.90
2018-06-13T10:56:00.567Z,59.80
2018-06-13T10:58:31.210Z,59.70
2018-06-13T11:01:01.419Z,60.60
2018-06-13T11:03:31.553Z,60.50
2018-06-13T11:06:01.590Z,59.30
2018-06-13T11:08:31.696Z,59.60
2018-06-13T11:11:01.768Z,59.00
2018-06-13T11:13:32.024Z,58.30
2018-06-13T11:16:02.115Z,57.80
2018-06-13T11:18:32.341Z,55.80
2018-06-13T11:21:02.495Z,56.00
2018-06-13T11:23:32.622Z,55.80
2018-06-13T11:26:02.661Z,55.50
2018-06-13T11:28:32.910Z,56.70
2018-06-13T11:31:02.983Z,56.80
2018-06-13T11:33:33.291Z,56.90
2018-06-13T11:36:03.419Z,57.00
2018-06-13T11:38:33.692Z,57.10
2018-06-13T11:41:03.765Z,56.80
2018-06-13T11:43:33.969Z,57.00
2018-06-13T11:46:04.216Z,57.40
2018-06-13T11:48:34.424Z,57.30
2018-06-13T11:51:04.562Z,56.80
2018-06-13T11:53:34.702Z,56.30
2018-06-13T11:56:04.800Z,55.80
2018-06-13T11:58:34.855Z,55.00
2018-06-13T12:01:05.116Z,55.40
2018-06-13T12:03:35.328Z,54.90
2018-06-13T12:06:05.466Z,54.50
2018-06-13T12:08:35.648Z,54.20
2018-06-13T12:11:05.932Z,53.00
2018-06-13T12:13:36.123Z,53.00
2018-06-13T12:16:06.188Z,53.10
2018-06-13T12:18:36.260Z,51.70
2018-06-13T12:21:06.384Z,51.70
2018-06-13T12:23:36.513Z,50.90
2018-06-13T12:26:06.658Z,51.90
2018-06-13T12:28:36.802Z,52.80
2018-06-13T12:31:07.001Z,53.40
2018-06-13T12:33:37.112Z,53.80
2018-06-13T12:36:07.278Z,53.70
2018-06-13T12:38:37.514Z,53.10
2018-06-13T12:41:07.602Z,53.30
2018-06-13T12:43:38.477Z,52.90
2018-06-13T12:46:08.644Z,52.40
2018-06-13T12:48:39.278Z,52.20
2018-06-13T12:51:09.972Z,51.90
2018-06-13T12:53:40.802Z,51.40
2018-06-13T12:56:10.890Z,52.20
2018-06-13T12:58:41.049Z,52.00
2018-06-13T13:01:11.210Z,51.70
2018-06-13T13:03:41.509Z,52.20
2018-06-13T13:06:11.619Z,51.90
2018-06-13T13:08:42.263Z,51.50
2018-06-13T13:11:12.447Z,51.00
2018-06-13T13:13:43.246Z,51.60
2018-06-13T13:16:13.390Z,50.40
2018-06-13T13:18:43.471Z,49.80
2018-06-13T13:21:13.566Z,50.60
2018-06-13T13:23:43.717Z,49.90
2018-06-13T13:26:13.863Z,49.40
2018-06-13T13:28:44.561Z,50.40
2018-06-13T13:31:14.673Z,49.10
2018-06-13T13:33:44.973Z,49.30
2018-06-13T13:36:15.124Z,49.20
2018-06-13T13:38:45.808Z,48.90
2018-06-13T13:41:15.920Z,49.70
2018-06-13T13:43:46.111Z,49.70
2018-06-13T13:46:16.896Z,50.20
2018-06-13T13:48:47.086Z,49.90
2018-06-13T13:51:17.190Z,50.70
2018-06-13T13:53:49.329Z,51.00
2018-06-13T13:56:19.514Z,51.40
2018-06-13T13:58:50.136Z,52.20
2018-06-13T14:01:20.232Z,52.40
2018-06-13T14:03:51.080Z,53.30
2018-06-13T14:06:21.168Z,53.30
2018-06-13T14:08:51.653Z,53.80
2018-06-13T14:11:21.718Z,53.40
2018-06-13T14:13:53.066Z,52.80
2018-06-13T14:16:23.240Z,53.00
2018-06-13T14:18:53.491Z,52.90
2018-06-13T14:21:23.723Z,53.20
2018-06-13T14:23:54.185Z,53.10
2018-06-13T14:26:24.325Z,53.00
2018-06-13T14:28:55.121Z,53.00
2018-06-13T14:31:25.259Z,53.30
2018-06-13T14:33:56.801Z,52.80
2018-06-13T14:36:26.907Z,51.90
2018-06-13T14:38:57.047Z,52.10
2018-06-13T14:41:27.168Z,51.70
2018-06-13T14:43:58.059Z,51.30
2018-06-13T14:46:28.293Z,51.20
2018-06-13T14:48:58.533Z,51.40
2018-06-13T14:51:28.635Z,51.00
2018-06-13T14:53:59.723Z,51.10
2018-06-13T14:56:32.132Z,50.90
2018-06-13T14:59:03.036Z,51.10
2018-06-13T15:01:33.233Z,51.30
2018-06-13T15:04:03.318Z,51.80
2018-06-13T15:06:34.011Z,51.00
2018-06-13T15:09:06.229Z,50.20
2018-06-13T15:11:36.890Z,49.50
2018-06-13T15:14:07.637Z,49.30
2018-06-13T15:16:37.749Z,48.30
2018-06-13T15:19:07.983Z,47.60
2018-06-13T15:21:38.069Z,46.80
2018-06-13T15:24:08.117Z,46.70
2018-06-13T15:26:38.190Z,47.80
2018-06-13T15:29:08.329Z,49.30
2018-06-13T15:31:38.448Z,50.10
2018-06-13T15:34:08.575Z,50.80
2018-06-13T15:36:38.825Z,51.40
2018-06-13T15:39:12.527Z,51.90
2018-06-13T15:41:43.051Z,52.50
2018-06-13T15:44:14.090Z,53.00
2018-06-13T15:46:44.255Z,53.40
2018-06-13T15:49:14.366Z,53.60
2018-06-13T15:51:44.503Z,53.90
2018-06-13T15:54:14.665Z,54.10
2018-06-13T15:56:44.783Z,54.20
2018-06-13T15:59:15.069Z,54.30
2018-06-13T16:01:45.820Z,54.40
2018-06-13T16:04:16.091Z,54.30
2018-06-13T16:06:46.151Z,54.20
2018-06-13T16:09:16.288Z,54.20
2018-06-13T16:11:46.890Z,53.80
2018-06-13T16:14:17.053Z,53.90
2018-06-13T16:16:47.202Z,54.00
2018-06-13T16:19:17.978Z,54.00
2018-06-13T16:21:48.545Z,54.00
2018-06-13T16:24:19.388Z,54.10
2018-06-13T16:26:49.526Z,53.90
2018-06-13T16:29:19.643Z,53.40
2018-06-13T16:31:49.664Z,53.50
2018-06-13T16:34:19.768Z,53.00
2018-06-13T16:36:49.902Z,53.70
2018-06-13T16:39:20.053Z,53.80
2018-06-13T16:41:50.225Z,53.70
2018-06-13T16:44:20.482Z,53.80
2018-06-13T16:46:50.788Z,53.40
2018-06-13T16:49:20.937Z,53.50
2018-06-13T16:51:55.435Z,54.40
2018-06-13T16:54:42.537Z,53.50
2018-06-13T16:57:12.663Z,53.20
2018-06-13T16:59:42.788Z,53.10
2018-06-13T17:02:12.878Z,52.80
2018-06-13T17:04:43.226Z,52.70
2018-06-13T17:07:13.340Z,52.40
2018-06-13T17:09:43.456Z,52.20
2018-06-13T17:12:13.560Z,52.10
2018-06-13T17:14:43.645Z,51.90
2018-06-13T17:17:13.711Z,52.40
2018-06-13T17:19:43.826Z,52.80
2018-06-13T17:22:14.150Z,52.90
2018-06-13T17:24:44.224Z,52.90
2018-06-13T17:27:14.325Z,52.90
2018-06-13T17:29:44.493Z,52.50
2018-06-13T17:32:14.691Z,53.00
2018-06-13T17:34:45.143Z,53.00
2018-06-13T17:37:15.374Z,53.10
2018-06-13T17:39:47.195Z,52.80
2018-06-13T17:42:17.637Z,53.10
2018-06-13T17:44:47.769Z,52.80
2018-06-13T17:47:17.816Z,52.80
2018-06-13T17:49:47.936Z,52.40
2018-06-13T17:52:18.149Z,51.90
2018-06-13T17:54:48.404Z,51.90
2018-06-13T17:57:18.581Z,51.60
2018-06-13T17:59:48.782Z,51.20
2018-06-13T18:02:19.664Z,51.30
2018-06-13T18:04:49.758Z,51.30
2018-06-13T18:07:20.006Z,51.80
2018-06-13T18:09:50.164Z,51.90
2018-06-13T18:12:20.250Z,52.00
2018-06-13T18:14:50.541Z,52.00
2018-06-13T18:17:21.385Z,52.70
2018-06-13T18:19:51.568Z,52.60
2018-06-13T18:22:21.657Z,52.80
2018-06-13T18:24:51.749Z,53.00
2018-06-13T18:27:21.846Z,52.90
2018-06-13T18:29:52.527Z,53.10
2018-06-13T18:32:22.584Z,53.00
2018-06-13T18:34:52.672Z,53.40
2018-06-13T18:37:22.702Z,53.50
2018-06-13T18:39:52.900Z,53.40
2018-06-13T18:42:23.037Z,53.60
2018-06-13T18:44:53.321Z,53.60
2018-06-13T18:47:23.509Z,53.70
2018-06-13T18:49:54.045Z,53.80
2018-06-13T18:52:24.356Z,53.90
2018-06-13T18:54:54.532Z,53.90
2018-06-13T18:57:25.345Z,54.10
2018-06-13T18:59:55.491Z,54.30
2018-06-13T19:02:25.579Z,54.60
2018-06-13T19:04:55.684Z,54.60
2018-06-13T19:07:25.783Z,54.60
2018-06-13T19:09:56.484Z,54.70
2018-06-13T19:12:27.160Z,54.80
2018-06-13T19:14:57.242Z,54.90
2018-06-13T19:17:27.364Z,55.10
2018-06-13T19:19:57.541Z,55.40
2018-06-13T19:22:27.620Z,55.50
2018-06-13T19:24:57.737Z,55.80
2018-06-13T19:27:27.976Z,55.80
2018-06-13T19:29:58.708Z,56.00
2018-06-13T19:32:28.808Z,56.20
2018-06-13T19:34:59.536Z,56.40
2018-06-13T19:37:30.534Z,56.70
2018-06-13T19:40:01.501Z,56.70
2018-06-13T19:42:31.689Z,56.70
2018-06-13T19:45:01.862Z,56.90
2018-06-13T19:48:41.156Z,57.00
2018-06-13T19:51:12.032Z,57.00
2018-06-13T19:53:47.358Z,57.20
2018-06-13T19:56:19.832Z,57.30
2018-06-13T19:58:49.958Z,57.30
2018-06-13T20:01:20.058Z,57.40
2018-06-13T20:03:55.200Z,57.50
2018-06-13T20:06:25.362Z,57.40
2018-06-13T20:08:55.616Z,57.40
2018-06-13T20:11:26.414Z,57.50
2018-06-13T20:14:02.925Z,57.40
2018-06-13T20:16:51.468Z,57.50
2018-06-13T20:19:26.971Z,57.60
2018-06-13T20:21:58.659Z,57.40
2018-06-13T20:24:28.770Z,57.40
2018-06-13T20:27:04.180Z,57.40
2018-06-13T20:29:39.480Z,57.30
2018-06-13T20:32:09.568Z,57.70
2018-06-13T20:34:40.995Z,57.50
2018-06-13T20:37:11.043Z,57.50
2018-06-13T20:39:41.237Z,57.60
2018-06-13T20:42:11.548Z,57.60
2018-06-13T20:44:41.551Z,57.60
2018-06-13T20:47:11.913Z,57.50
2018-06-13T20:49:42.031Z,57.60
2018-06-13T20:52:12.260Z,57.60
2018-06-13T20:54:42.445Z,58.00
2018-06-13T20:57:12.544Z,57.70
2018-06-13T21:02:12.823Z,57.30
2018-06-13T21:04:42.919Z,57.40
2018-06-13T21:07:13.057Z,57.50
2018-06-13T21:09:43.167Z,57.60
2018-06-13T21:12:13.375Z,57.50
2018-06-13T21:14:43.624Z,57.30
2018-06-13T21:17:13.821Z,57.60
2018-06-13T21:19:44.878Z,57.60
2018-06-13T21:22:15.065Z,57.70
2018-06-13T21:24:45.165Z,57.60
2018-06-13T21:27:15.298Z,57.60
2018-06-13T21:29:45.550Z,57.70
2018-06-13T21:32:15.819Z,57.60
2018-06-13T21:34:46.084Z,57.60
2018-06-13T21:37:16.251Z,57.80
2018-06-13T21:39:46.387Z,57.60
2018-06-13T21:42:16.865Z,57.50
2018-06-13T21:44:47.039Z,57.70
2018-06-13T21:47:17.589Z,57.80
2018-06-13T21:49:47.719Z,57.70
2018-06-13T21:52:17.857Z,58.00
2018-06-13T21:54:48.059Z,57.80
2018-06-13T21:57:18.169Z,58.00
2018-06-13T21:59:48.283Z,58.10
2018-06-13T22:02:18.399Z,58.10
2018-06-13T22:04:48.540Z,57.90
2018-06-13T22:07:18.892Z,57.80
2018-06-13T22:09:49.033Z,57.90
2018-06-13T22:12:19.255Z,58.00
2018-06-13T22:14:49.299Z,58.70
2018-06-13T22:17:19.380Z,58.10
2018-06-13T22:19:49.407Z,58.20
2018-06-13T22:22:19.659Z,58.00
2018-06-13T22:24:50.576Z,57.80
2018-06-13T22:27:20.819Z,58.00
2018-06-13T22:29:51.055Z,58.00
2018-06-13T22:32:21.136Z,58.10
2018-06-13T22:34:51.237Z,58.20
2018-06-13T22:37:21.553Z,58.30
2018-06-13T22:39:51.613Z,59.20
2018-06-13T22:42:21.737Z,58.80
2018-06-13T22:44:51.803Z,59.10
2018-06-13T22:47:21.981Z,59.40
2018-06-13T22:52:33.738Z,59.90
2018-06-13T22:55:03.861Z,60.30
2018-06-13T22:57:34.073Z,60.60
2018-06-13T23:00:04.305Z,60.80
2018-06-13T23:02:34.529Z,61.20
2018-06-13T23:05:04.711Z,61.40
2018-06-13T23:07:35.337Z,61.70
2018-06-13T23:10:05.769Z,61.80
2018-06-13T23:12:36.052Z,61.60
2018-06-13T23:15:06.471Z,61.30
2018-06-13T23:17:36.626Z,61.20
2018-06-13T23:20:06.720Z,61.40
2018-06-13T23:22:36.786Z,61.40
2018-06-13T23:25:07.027Z,61.60
2018-06-13T23:27:38.117Z,61.80
2018-06-13T23:30:08.264Z,61.80
2018-06-13T23:32:39.358Z,62.00
2018-06-13T23:35:09.550Z,62.00
2018-06-13T23:37:39.706Z,61.90
2018-06-13T23:40:09.884Z,62.10
2018-06-13T23:42:40.073Z,62.40
2018-06-13T23:45:10.150Z,62.60
2018-06-13T23:47:40.802Z,62.70
2018-06-13T23:50:10.816Z,62.70
2018-06-13T23:52:40.956Z,63.00
2018-06-13T23:55:11.072Z,63.50
2018-06-13T23:57:41.190Z,63.40
